Disclaimer

Please do not use the information listed here in-flight or in-navigation, as they are not provided to us by the airports but are provided by volunteers, so they might be outdated.

Search


Regions


Airport information page

No radio frequency information is available.

Airport informations:
Latitude: 31° 21' 06.76" N
Longitude: 113° 31' 32.62" W
Elevation: 30 feet - 9 meters
Operating hours: Remarks
Operating agency: Civil government, landing fees and diplomatic clearance may be required
Timezone: UTC-7
Fuel: N/A

Runway information:
03/21 - 3329 x 92 feet< - >1015 x 28 meters
11/29 - 4805 x 82 feet< - >1465 x 25 meters

Recent METARs:
MMPE 131452Z 35013KT 10SM SKC 12/M08 A3037 RMK RTS
MMPE 131452Z 35013KT 10SM SKC 12/M08 A3037 RMK RTS
MMPE 131452Z 35013KT 10SM SKC 12/M08 A3037 RMK RTS

Airport on the map: